Time;durP1;ratioP1;P1;durP2;ratioP2;P2;SDS_P1;SDS_P2;PMS_P1;PMS_P2;Temp;Humidity;BMP_temperature;BMP_pressure;BME280_temperature;BME280_humidity;BME280_pressure;Samples;Min_cycle;Max_cycle;Signal;HPM_P1;HPM_P2
2022/11/02 00:01:42;;;;;;;4.70;1.52;;;14.80;99.90;;;;;;5074105;28;20064;-40
2022/11/02 00:04:08;;;;;;;8.40;1.65;;;14.80;99.90;;;;;;5066628;28;20107;-40
2022/11/02 00:06:33;;;;;;;5.75;1.50;;;14.80;99.90;;;;;;5077230;28;20737;-37
2022/11/02 00:08:59;;;;;;;10.77;1.80;;;14.80;99.90;;;;;;5067177;28;20024;-39
2022/11/02 00:11:24;;;;;;;8.00;1.75;;;14.90;99.90;;;;;;5076154;28;20028;-41
2022/11/02 00:13:50;;;;;;;9.68;1.65;;;14.90;99.90;;;;;;5065644;28;20024;-40
2022/11/02 00:16:17;;;;;;;3.92;1.30;;;14.90;99.90;;;;;;5072534;28;20626;-40
2022/11/02 00:18:45;;;;;;;4.40;1.50;;;14.90;99.90;;;;;;5085123;28;20024;-38
2022/11/02 00:21:12;;;;;;;8.90;1.65;;;14.90;99.90;;;;;;5072432;28;20039;-39
2022/11/02 00:23:39;;;;;;;8.30;2.60;;;14.90;99.90;;;;;;5086006;28;20024;-36
2022/11/02 00:26:05;;;;;;;4.68;1.20;;;14.90;99.90;;;;;;5081413;28;20080;-40
2022/11/02 00:28:32;;;;;;;5.47;1.48;;;14.90;99.90;;;;;;5065857;28;20692;-39
2022/11/02 00:30:57;;;;;;;4.22;1.50;;;14.90;99.90;;;;;;5074322;28;20020;-40
2022/11/02 00:33:23;;;;;;;7.47;1.95;;;14.90;99.90;;;;;;5067680;28;20098;-40
2022/11/02 00:35:48;;;;;;;5.90;1.17;;;14.90;99.90;;;;;;5072027;28;20129;-38
2022/11/02 00:38:20;;;;;;;7.05;1.38;;;14.80;99.90;;;;;;5069649;28;20086;-39
2022/11/02 00:40:45;;;;;;;5.70;1.30;;;14.80;99.90;;;;;;5070583;28;20035;-39
2022/11/02 00:43:11;;;;;;;6.68;2.03;;;14.70;99.90;;;;;;5072219;28;20020;-39
2022/11/02 00:45:37;;;;;;;6.80;1.73;;;14.70;99.90;;;;;;5067110;28;20036;-39
2022/11/02 00:48:03;;;;;;;6.03;1.42;;;14.60;99.90;;;;;;5074687;28;20055;-40
2022/11/02 00:50:29;;;;;;;6.85;1.50;;;14.50;99.90;;;;;;5065830;28;20024;-41
2022/11/02 00:52:54;;;;;;;5.22;1.30;;;14.50;99.90;;;;;;5076220;28;20471;-41
2022/11/02 00:55:20;;;;;;;3.72;1.13;;;14.40;99.90;;;;;;5065570;28;20044;-41
2022/11/02 00:57:46;;;;;;;6.07;1.70;;;14.40;99.90;;;;;;5075840;28;20021;-38
2022/11/02 01:00:13;;;;;;;3.28;1.00;;;14.30;99.90;;;;;;5064299;28;20036;-40
2022/11/02 01:02:39;;;;;;;3.42;1.30;;;14.30;99.90;;;;;;5077418;28;20028;-39
2022/11/02 01:05:05;;;;;;;4.40;1.40;;;14.20;99.90;;;;;;5065395;28;20042;-39
2022/11/02 01:07:31;;;;;;;4.55;1.83;;;14.20;99.90;;;;;;5076530;28;20020;-41
2022/11/02 01:09:56;;;;;;;4.53;1.35;;;14.20;99.90;;;;;;5064670;28;20102;-40
2022/11/02 01:12:22;;;;;;;4.13;1.50;;;14.20;99.90;;;;;;5073208;28;20829;-40
2022/11/02 01:14:49;;;;;;;3.33;1.10;;;14.30;99.90;;;;;;5066642;28;20038;-40
2022/11/02 01:17:15;;;;;;;5.55;1.40;;;14.30;99.90;;;;;;5070872;28;20032;-38
2022/11/02 01:19:40;;;;;;;5.25;1.40;;;14.30;99.90;;;;;;5069554;28;20032;-40
2022/11/02 01:22:06;;;;;;;3.22;1.08;;;14.30;99.90;;;;;;5068748;28;20054;-40
2022/11/02 01:24:32;;;;;;;5.40;1.00;;;14.40;99.90;;;;;;5071808;28;20020;-37
2022/11/02 01:26:57;;;;;;;4.78;1.30;;;14.40;99.90;;;;;;5065810;28;20060;-38
2022/11/02 01:29:23;;;;;;;3.45;1.00;;;14.40;99.90;;;;;;5073967;28;20064;-39
2022/11/02 01:31:48;;;;;;;4.47;1.30;;;14.40;99.90;;;;;;5065194;28;20024;-38
2022/11/02 01:34:14;;;;;;;3.53;1.10;;;14.40;99.90;;;;;;5074316;28;20093;-40
2022/11/02 01:36:40;;;;;;;6.80;1.52;;;14.30;99.90;;;;;;5064708;28;20048;-38
2022/11/02 01:39:06;;;;;;;4.05;1.10;;;14.30;99.90;;;;;;5075449;28;20024;-40
2022/11/02 01:41:32;;;;;;;6.07;1.70;;;14.30;99.90;;;;;;5063596;28;20036;-37
2022/11/02 01:44:01;;;;;;;4.68;1.30;;;14.40;99.90;;;;;;5076296;28;20020;-39
2022/11/02 01:46:41;;;;;;;7.82;1.20;;;14.40;99.90;;;;;;5063675;28;20032;-40
2022/11/02 01:49:14;;;;;;;7.60;1.10;;;14.30;99.90;;;;;;5075536;28;20129;-39
2022/11/02 01:51:53;;;;;;;2.45;0.70;;;14.10;99.90;;;;;;5064389;28;20040;-36
2022/11/02 01:54:24;;;;;;;2.05;0.55;;;13.70;99.90;;;;;;5075749;28;20024;-40
2022/11/02 01:56:56;;;;;;;1.88;0.73;;;13.40;99.90;;;;;;5063186;28;20045;-40
2022/11/02 01:59:28;;;;;;;1.85;0.60;;;13.20;99.90;;;;;;5075490;28;20020;-39
2022/11/02 02:01:56;;;;;;;2.88;0.70;;;13.10;99.90;;;;;;5063495;28;20570;-41
2022/11/02 02:04:22;;;;;;;1.75;0.38;;;13.00;99.90;;;;;;5074887;28;20086;-40
2022/11/02 02:06:49;;;;;;;1.85;0.60;;;12.90;99.90;;;;;;5063615;28;20387;-39
2022/11/02 02:09:16;;;;;;;3.90;0.60;;;12.90;99.90;;;;;;5072495;28;20479;-37
2022/11/02 02:11:42;;;;;;;2.45;0.75;;;12.80;99.90;;;;;;5066231;28;20036;-39
2022/11/02 02:14:14;;;;;;;2.13;0.50;;;12.80;99.90;;;;;;5070408;28;20406;-39
2022/11/02 02:17:17;;;;;;;3.13;0.50;;;12.80;99.90;;;;;;5067527;28;20040;-39
2022/11/02 02:19:53;;;;;;;3.42;0.88;;;12.80;99.90;;;;;;5074774;28;20031;-36
2022/11/02 02:22:19;;;;;;;2.10;0.50;;;12.70;99.90;;;;;;5063329;28;20028;-34
2022/11/02 02:25:16;;;;;;;6.00;1.00;;;12.70;99.90;;;;;;5072032;28;20028;-39
2022/11/02 02:27:56;;;;;;;3.20;0.65;;;12.70;99.90;;;;;;5064131;28;20060;-41
2022/11/02 02:30:22;;;;;;;2.90;0.70;;;12.70;99.90;;;;;;5074664;28;20028;-35
2022/11/02 02:33:09;;;;;;;2.92;0.70;;;12.70;99.90;;;;;;5063220;28;20052;-38
2022/11/02 02:35:44;;;;;;;2.40;0.60;;;12.70;99.90;;;;;;5075928;28;20047;-39
2022/11/02 02:38:39;;;;;;;2.92;0.60;;;12.70;99.90;;;;;;5062218;28;20042;-37
2022/11/02 02:41:29;;;;;;;2.45;0.57;;;12.60;99.90;;;;;;5067489;28;20479;-38
2022/11/02 02:43:56;;;;;;;2.25;0.50;;;12.60;99.90;;;;;;5083557;28;20036;-35
2022/11/02 02:46:29;;;;;;;1.95;0.50;;;12.50;99.90;;;;;;5071052;28;20020;-39
2022/11/02 02:48:57;;;;;;;2.92;0.60;;;12.40;99.90;;;;;;5083652;28;20024;-38
2022/11/02 02:51:31;;;;;;;2.53;0.70;;;12.40;99.90;;;;;;5074530;28;20501;-40
2022/11/02 02:54:06;;;;;;;2.58;0.70;;;12.30;99.90;;;;;;5063038;28;20067;-39
2022/11/02 02:56:54;;;;;;;2.85;0.70;;;12.30;99.90;;;;;;5070390;28;20028;-39
2022/11/02 02:59:30;;;;;;;1.23;0.50;;;12.20;99.90;;;;;;5082167;28;20021;-39
2022/11/02 03:01:56;;;;;;;4.22;0.88;;;12.20;99.90;;;;;;5073740;28;20052;-40
2022/11/02 03:04:21;;;;;;;1.98;0.77;;;12.20;99.90;;;;;;5062553;28;20120;-40
2022/11/02 03:06:54;;;;;;;4.15;0.80;;;12.20;99.90;;;;;;5074548;28;20071;-39
2022/11/02 03:09:33;;;;;;;;;;;12.20;99.90;;;;;;5063231;28;20534;-37
2022/11/02 03:12:31;;;;;;;6.18;1.17;;;12.20;99.90;;;;;;5070223;28;20481;-40
2022/11/02 03:15:12;;;;;;;4.22;1.02;;;12.20;99.90;;;;;;5063566;28;20040;-40
2022/11/02 03:18:07;;;;;;;6.88;1.50;;;12.30;99.90;;;;;;5074032;28;20032;-38
2022/11/02 03:20:56;;;;;;;4.75;1.23;;;12.40;99.90;;;;;;5057697;28;20037;-40
2022/11/02 03:23:47;;;;;;;5.55;1.30;;;12.50;99.90;;;;;;5073651;28;20376;-39
2022/11/02 03:26:26;;;;;;;7.15;1.88;;;12.70;99.90;;;;;;5077023;28;20025;-40
2022/11/02 03:29:00;;;;;;;6.88;1.50;;;12.70;99.90;;;;;;5074027;28;20040;-39
2022/11/02 03:31:54;;;;;;;6.65;1.25;;;12.70;99.90;;;;;;5067848;28;20148;-39
2022/11/02 03:34:43;;;;;;;4.28;1.42;;;12.70;99.90;;;;;;5064687;28;20122;-39
2022/11/02 03:37:25;;;;;;;6.07;1.40;;;12.70;99.90;;;;;;5074597;28;20119;-38
2022/11/02 03:40:02;;;;;;;5.57;1.40;;;12.70;99.90;;;;;;5067001;28;20060;-39
2022/11/02 03:42:32;;;;;;;6.60;1.42;;;12.70;99.90;;;;;;5075848;28;20034;-40
2022/11/02 03:45:02;;;;;;;5.38;1.70;;;12.70;99.90;;;;;;5067261;28;20598;-39
2022/11/02 03:47:32;;;;;;;5.25;1.33;;;12.70;99.90;;;;;;5074435;28;20034;-40
2022/11/02 03:50:01;;;;;;;7.13;1.63;;;12.70;99.90;;;;;;5068787;28;20028;-39
2022/11/02 03:52:30;;;;;;;7.57;2.15;;;12.80;99.90;;;;;;5073483;28;20578;-40
2022/11/02 03:55:07;;;;;;;7.72;1.60;;;12.80;99.90;;;;;;5069370;28;20040;-39
2022/11/02 03:57:45;;;;;;;7.50;1.67;;;12.80;99.90;;;;;;5073090;28;20111;-39
2022/11/02 04:00:19;;;;;;;6.78;1.98;;;12.70;99.90;;;;;;5069786;28;20116;-40
2022/11/02 04:02:48;;;;;;;5.65;1.35;;;12.70;99.90;;;;;;5072971;28;20020;-40
2022/11/02 04:05:14;;;;;;;10.57;1.67;;;12.70;99.90;;;;;;5070100;28;20032;-40
2022/11/02 04:10:28;;;;;;;5.25;1.50;;;12.60;99.90;;;;;;5069716;28;20435;-35
2022/11/02 04:15:37;;;;;;;6.18;1.45;;;12.60;99.90;;;;;;5080862;28;20043;-37
2022/11/02 04:20:50;;;;;;;8.27;1.70;;;12.70;99.90;;;;;;5081391;28;20066;-34
2022/11/02 04:26:00;;;;;;;7.47;1.80;;;12.70;99.90;;;;;;5082263;28;20059;-39
2022/11/02 04:28:26;;;;;;;7.53;1.67;;;12.60;99.90;;;;;;5078876;28;20135;-37
2022/11/02 04:30:52;;;;;;;8.70;1.95;;;12.60;99.90;;;;;;5078060;28;20043;-40
2022/11/02 04:33:33;;;;;;;9.55;1.70;;;12.60;99.90;;;;;;5081998;28;20056;-38
2022/11/02 04:36:04;;;;;;;6.95;1.83;;;12.60;99.90;;;;;;5079330;28;20040;-41
2022/11/02 04:38:42;;;;;;;9.02;2.00;;;12.70;99.90;;;;;;5080728;28;20196;-39
2022/11/02 04:43:53;;;;;;;5.15;1.33;;;12.80;99.90;;;;;;5079393;28;20082;-39
2022/11/02 04:46:20;;;;;;;8.45;1.83;;;12.80;99.90;;;;;;5078152;28;20036;-39
2022/11/02 04:48:46;;;;;;;10.77;1.85;;;12.90;99.90;;;;;;5081347;28;20048;-39
2022/11/02 04:51:11;;;;;;;6.60;1.70;;;12.90;99.90;;;;;;5074244;28;20059;-40
2022/11/02 04:53:37;;;;;;;7.80;1.50;;;13.00;99.90;;;;;;5083821;28;20027;-39
2022/11/02 04:56:03;;;;;;;6.57;1.60;;;13.00;99.90;;;;;;5073831;28;20459;-39
2022/11/02 04:58:28;;;;;;;5.57;1.63;;;13.00;99.90;;;;;;5082652;28;20614;-39
2022/11/02 05:00:54;;;;;;;9.23;2.00;;;13.00;99.90;;;;;;5073819;28;20067;-39
2022/11/02 05:03:19;;;;;;;6.43;1.67;;;13.10;99.90;;;;;;5084420;28;20391;-40
2022/11/02 05:05:45;;;;;;;7.88;2.00;;;13.10;99.90;;;;;;5071596;28;20040;-39
2022/11/02 05:08:10;;;;;;;9.95;1.95;;;13.10;99.90;;;;;;5084244;28;20028;-37
2022/11/02 05:10:36;;;;;;;7.00;1.80;;;13.20;99.90;;;;;;5071956;28;20039;-38
2022/11/02 05:13:02;;;;;;;6.85;1.90;;;13.20;99.90;;;;;;5084408;28;20035;-39
2022/11/02 05:15:27;;;;;;;9.18;2.13;;;13.20;99.90;;;;;;5074338;28;20032;-37
2022/11/02 05:17:53;;;;;;;10.07;1.85;;;13.20;99.90;;;;;;5082493;28;20031;-40
2022/11/02 05:20:18;;;;;;;8.75;2.20;;;13.20;99.90;;;;;;5076553;28;20025;-40
2022/11/02 05:22:44;;;;;;;8.35;2.22;;;13.30;99.90;;;;;;5078804;28;20051;-40
2022/11/02 05:25:10;;;;;;;5.63;1.98;;;13.20;99.90;;;;;;5079620;28;20155;-39
2022/11/02 05:27:36;;;;;;;8.70;1.85;;;13.20;99.90;;;;;;5076133;28;20059;-40
2022/11/02 05:30:02;;;;;;;9.80;1.70;;;13.20;99.90;;;;;;5082395;28;20754;-40
2022/11/02 05:32:28;;;;;;;7.00;1.90;;;13.20;99.90;;;;;;5072939;28;20503;-40
2022/11/02 05:34:56;;;;;;;12.13;2.00;;;13.10;99.90;;;;;;5081719;28;20362;-40
2022/11/02 05:37:22;;;;;;;11.88;2.17;;;13.10;99.90;;;;;;5072629;28;20074;-40
2022/11/02 05:39:47;;;;;;;9.40;1.60;;;13.10;99.90;;;;;;5083252;28;20696;-39
2022/11/02 05:42:13;;;;;;;9.85;2.08;;;13.20;99.90;;;;;;5071548;28;20055;-40
2022/11/02 05:44:39;;;;;;;7.63;1.92;;;13.20;99.90;;;;;;5084291;28;20024;-40
2022/11/02 05:47:04;;;;;;;10.65;2.40;;;13.20;99.90;;;;;;5070886;28;20044;-39
2022/11/02 05:49:30;;;;;;;8.60;1.80;;;13.30;99.90;;;;;;5083483;28;20119;-40
2022/11/02 05:51:56;;;;;;;6.93;1.80;;;13.30;99.90;;;;;;5071534;28;20040;-40
2022/11/02 05:54:21;;;;;;;9.40;1.83;;;13.30;99.90;;;;;;5083289;28;20031;-40
2022/11/02 05:56:47;;;;;;;10.43;1.85;;;13.30;99.90;;;;;;5074570;28;20452;-41
2022/11/02 05:59:12;;;;;;;5.28;1.58;;;13.30;99.90;;;;;;5079533;28;20031;-40
2022/11/02 06:01:38;;;;;;;8.57;2.10;;;13.30;99.90;;;;;;5076111;28;20031;-39
2022/11/02 06:04:04;;;;;;;8.48;1.80;;;13.30;99.90;;;;;;5078359;28;20546;-39
2022/11/02 06:06:30;;;;;;;8.30;2.20;;;13.30;99.90;;;;;;5078880;28;20395;-39
2022/11/02 06:08:59;;;;;;;9.68;2.35;;;13.30;99.90;;;;;;5074431;28;20435;-40
2022/11/02 06:11:24;;;;;;;7.60;1.88;;;13.30;99.90;;;;;;5081265;28;20036;-37
2022/11/02 06:13:50;;;;;;;7.43;1.75;;;13.30;99.90;;;;;;5072921;28;20379;-39
2022/11/02 06:16:17;;;;;;;7.40;1.83;;;13.30;99.90;;;;;;5080919;28;20024;-39
2022/11/02 06:18:43;;;;;;;7.60;1.67;;;13.30;99.90;;;;;;5072796;28;20508;-39
2022/11/02 06:21:09;;;;;;;9.07;1.73;;;13.30;99.90;;;;;;5082741;28;20525;-40
2022/11/02 06:23:38;;;;;;;11.70;1.92;;;13.30;99.90;;;;;;5071139;28;20103;-41
2022/11/02 06:26:04;;;;;;;6.68;1.88;;;13.30;99.90;;;;;;5084397;28;20471;-40
2022/11/02 06:28:30;;;;;;;7.97;1.63;;;13.30;99.90;;;;;;5070255;28;20028;-38
2022/11/02 06:30:56;;;;;;;6.43;1.83;;;13.30;99.90;;;;;;5082549;28;20046;-40
2022/11/02 06:33:22;;;;;;;6.28;1.60;;;13.30;99.90;;;;;;5070752;28;20048;-40
2022/11/02 06:35:50;;;;;;;7.20;1.65;;;13.30;99.90;;;;;;5083470;28;20073;-40
2022/11/02 06:38:16;;;;;;;5.95;1.40;;;13.30;99.90;;;;;;5054938;28;20017;-40
2022/11/02 06:40:42;;;;;;;9.20;1.95;;;13.20;99.90;;;;;;5074219;28;20042;-40
2022/11/02 06:43:08;;;;;;;7.85;1.60;;;13.20;99.90;;;;;;5067490;28;20021;-39
2022/11/02 06:45:34;;;;;;;9.23;1.98;;;13.10;99.90;;;;;;5073554;28;20111;-40
2022/11/02 06:47:59;;;;;;;8.07;1.95;;;13.10;99.90;;;;;;5066907;28;20062;-39
2022/11/02 06:50:25;;;;;;;8.27;1.98;;;13.00;99.90;;;;;;5067271;28;20762;-39
2022/11/02 06:52:51;;;;;;;8.05;1.70;;;12.90;99.90;;;;;;5061745;28;20132;-39
2022/11/02 06:55:17;;;;;;;11.23;1.90;;;12.90;99.90;;;;;;5066078;28;20029;-39
2022/11/02 06:57:43;;;;;;;9.48;2.25;;;12.80;99.90;;;;;;5067091;28;20039;-40
2022/11/02 07:00:16;;;;;;;11.90;1.58;;;12.80;99.90;;;;;;5067541;28;20020;-41
2022/11/02 07:02:44;;;;;;;8.48;1.58;;;12.70;99.90;;;;;;5067835;28;20028;-40
2022/11/02 07:05:11;;;;;;;10.30;1.70;;;12.60;99.90;;;;;;5066158;28;20426;-40
2022/11/02 07:07:36;;;;;;;6.40;1.65;;;12.70;99.90;;;;;;5067363;28;20032;-39
2022/11/02 07:10:03;;;;;;;9.98;1.65;;;12.60;99.90;;;;;;5062157;28;21285;-40
2022/11/02 07:12:31;;;;;;;7.97;1.80;;;12.60;99.90;;;;;;5077955;28;20036;-40
2022/11/02 07:14:56;;;;;;;6.70;1.60;;;12.60;99.90;;;;;;5069372;28;20033;-40
2022/11/02 07:17:22;;;;;;;7.65;1.55;;;12.70;99.90;;;;;;5081218;28;20024;-39
2022/11/02 07:19:47;;;;;;;9.30;1.20;;;12.60;99.90;;;;;;5064667;28;20059;-38
2022/11/02 07:22:13;;;;;;;6.80;1.50;;;12.60;99.90;;;;;;5075402;28;20036;-38
2022/11/02 07:24:39;;;;;;;6.78;1.80;;;12.60;99.90;;;;;;5077312;28;20060;-40
2022/11/02 07:27:04;;;;;;;5.47;1.50;;;12.60;99.90;;;;;;5062741;28;20149;-39
2022/11/02 07:29:30;;;;;;;6.00;1.45;;;12.60;99.90;;;;;;5073900;28;20038;-40
2022/11/02 07:31:55;;;;;;;7.78;1.63;;;12.60;99.90;;;;;;5064611;28;20035;-40
2022/11/02 07:34:21;;;;;;;7.03;1.63;;;12.60;99.90;;;;;;5073473;28;20048;-39
2022/11/02 07:36:46;;;;;;;5.82;1.90;;;12.60;99.90;;;;;;5066650;28;20044;-38
2022/11/02 07:39:12;;;;;;;6.85;1.73;;;12.60;99.90;;;;;;5073935;28;20011;-36
2022/11/02 07:41:38;;;;;;;7.50;1.50;;;12.60;99.90;;;;;;5065662;28;20021;-38
2022/11/02 07:44:03;;;;;;;5.60;1.25;;;12.70;99.90;;;;;;5063402;28;20336;-39
2022/11/02 07:46:29;;;;;;;7.30;1.67;;;12.70;99.90;;;;;;5072167;28;20038;-40
2022/11/02 07:48:55;;;;;;;10.07;1.50;;;12.80;99.90;;;;;;5070065;28;20086;-37
2022/11/02 07:51:21;;;;;;;6.65;1.77;;;12.90;99.90;;;;;;5071646;28;20103;-39
2022/11/02 07:53:47;;;;;;;6.47;1.35;;;13.00;99.90;;;;;;5064553;28;20032;-41
2022/11/02 07:56:12;;;;;;;6.55;1.30;;;13.10;99.90;;;;;;5069787;28;20102;-41
2022/11/02 07:58:38;;;;;;;8.10;1.67;;;13.20;99.90;;;;;;5066869;28;20489;-40
2022/11/02 08:01:04;;;;;;;4.95;1.60;;;13.30;99.90;;;;;;5078194;28;20036;-40
2022/11/02 08:03:29;;;;;;;5.78;1.50;;;13.40;99.90;;;;;;5063976;28;20079;-40
2022/11/02 08:05:55;;;;;;;9.07;1.60;;;13.40;99.90;;;;;;5063925;28;20036;-40
2022/11/02 08:08:22;;;;;;;9.40;1.63;;;13.40;99.90;;;;;;5063517;28;20030;-40
2022/11/02 08:10:50;;;;;;;7.82;1.70;;;13.40;99.90;;;;;;5076473;28;20605;-40
2022/11/02 08:13:19;;;;;;;6.93;1.65;;;13.40;99.90;;;;;;5067332;28;20886;-39
2022/11/02 08:15:51;;;;;;;5.97;1.50;;;13.40;99.90;;;;;;5077162;28;20586;-38
2022/11/02 08:18:19;;;;;;;6.72;1.40;;;13.40;99.90;;;;;;5064429;28;20821;-41
2022/11/02 08:20:46;;;;;;;7.53;1.50;;;13.40;99.90;;;;;;5063292;28;20615;-38
2022/11/02 08:23:16;;;;;;;8.25;1.52;;;13.40;99.90;;;;;;5065675;28;20047;-41
2022/11/02 08:25:44;;;;;;;8.90;1.48;;;13.40;99.90;;;;;;5071654;28;20098;-40
2022/11/02 08:28:13;;;;;;;8.00;1.80;;;13.30;99.90;;;;;;5065179;28;20499;-40
2022/11/02 08:30:38;;;;;;;6.90;1.60;;;13.30;99.90;;;;;;5063107;28;20029;-41
2022/11/02 08:33:06;;;;;;;9.13;1.70;;;13.20;99.90;;;;;;5066573;28;20079;-39
2022/11/02 08:35:33;;;;;;;5.82;1.27;;;13.20;99.90;;;;;;5061864;28;20450;-39
2022/11/02 08:37:59;;;;;;;8.23;1.52;;;13.10;99.90;;;;;;5063060;28;20016;-39
2022/11/02 08:40:25;;;;;;;7.80;1.48;;;13.00;99.90;;;;;;5070967;28;20032;-40
2022/11/02 08:42:59;;;;;;;4.97;1.35;;;13.00;99.90;;;;;;5069758;28;20127;-38
2022/11/02 08:45:26;;;;;;;6.63;1.30;;;13.00;99.90;;;;;;5061328;28;20086;-40
2022/11/02 08:47:52;;;;;;;7.88;1.50;;;13.00;99.90;;;;;;5065823;28;20106;-41
2022/11/02 08:50:17;;;;;;;7.25;1.42;;;13.00;99.90;;;;;;5079951;28;20028;-37
2022/11/02 08:52:43;;;;;;;7.88;1.55;;;13.00;99.90;;;;;;5073725;28;20464;-40
2022/11/02 08:55:08;;;;;;;5.85;1.48;;;13.00;99.90;;;;;;5064357;28;20452;-38
2022/11/02 08:57:44;;;;;;;5.25;1.30;;;13.00;99.90;;;;;;5073113;28;20025;-40
2022/11/02 09:00:10;;;;;;;8.95;1.38;;;13.10;99.90;;;;;;5073592;28;20024;-40
2022/11/02 09:02:35;;;;;;;6.47;1.42;;;13.10;99.90;;;;;;5074239;28;20150;-40
2022/11/02 09:05:01;;;;;;;5.97;1.73;;;13.10;99.90;;;;;;5063928;28;20028;-40
2022/11/02 09:07:26;;;;;;;4.88;1.40;;;13.10;99.90;;;;;;5073348;28;20036;-40
2022/11/02 09:09:52;;;;;;;9.40;1.58;;;13.10;99.90;;;;;;5070735;28;20051;-39
2022/11/02 09:12:17;;;;;;;6.03;1.88;;;13.10;99.90;;;;;;5072097;28;20024;-41
2022/11/02 09:14:43;;;;;;;8.60;1.88;;;13.10;99.90;;;;;;5068137;28;20021;-40
2022/11/02 09:17:08;;;;;;;4.25;1.20;;;13.20;99.90;;;;;;5066354;28;20123;-39
2022/11/02 09:19:34;;;;;;;7.38;1.88;;;13.20;99.90;;;;;;5067713;28;20032;-39
2022/11/02 09:21:59;;;;;;;6.68;1.73;;;13.20;99.90;;;;;;5067432;28;20429;-40
2022/11/02 09:24:25;;;;;;;7.28;1.80;;;13.30;99.90;;;;;;5066533;28;20086;-40
2022/11/02 09:26:51;;;;;;;7.82;2.13;;;13.30;99.90;;;;;;5064631;28;20111;-40
2022/11/02 09:29:17;;;;;;;9.25;2.10;;;13.40;99.90;;;;;;5067200;28;20021;-41
2022/11/02 09:31:43;;;;;;;11.27;2.10;;;13.40;99.90;;;;;;5079217;28;20378;-40
2022/11/02 09:34:08;;;;;;;8.35;1.83;;;13.40;99.90;;;;;;5072997;28;20041;-41
2022/11/02 09:36:34;;;;;;;9.60;1.60;;;13.40;99.90;;;;;;5081908;28;20716;-41
2022/11/02 09:38:59;;;;;;;6.85;2.35;;;13.40;99.90;;;;;;5076368;28;20025;-41
2022/11/02 09:41:42;;;;;;;5.50;1.27;;;13.40;99.90;;;;;;5078670;28;20047;-39
2022/11/02 09:44:12;;;;;;;;;;;13.40;99.90;;;;;;5076791;28;20023;-40
2022/11/02 09:46:42;;;;;;;4.57;1.55;;;13.40;99.90;;;;;;5078544;28;20278;-39
2022/11/02 09:49:15;;;;;;;5.88;1.70;;;13.50;99.90;;;;;;5076576;28;20025;-40
2022/11/02 09:51:50;;;;;;;6.45;1.50;;;13.40;99.90;;;;;;5078867;28;20055;-39
2022/11/02 09:54:29;;;;;;;7.28;1.70;;;13.50;99.90;;;;;;5077721;28;20016;-39
2022/11/02 09:56:59;;;;;;;8.07;1.50;;;13.50;99.90;;;;;;5070024;28;20040;-40
2022/11/02 09:59:26;;;;;;;6.28;1.40;;;13.60;99.90;;;;;;5068121;28;20028;-40
2022/11/02 10:02:27;;;;;;;6.38;1.50;;;13.60;99.90;;;;;;5070207;28;20025;-37
2022/11/02 10:05:09;;;;;;;6.22;1.65;;;13.60;99.90;;;;;;5071804;28;20028;-39
2022/11/02 10:08:14;;;;;;;7.07;1.27;;;13.70;99.90;;;;;;5069790;28;20024;-38
2022/11/02 10:11:11;;;;;;;11.02;1.85;;;13.70;99.90;;;;;;5075887;28;20031;-40
2022/11/02 10:13:50;;;;;;;6.82;1.70;;;13.70;99.90;;;;;;5080830;28;20042;-39
2022/11/02 10:16:31;;;;;;;11.05;1.70;;;13.80;99.90;;;;;;5075556;28;20131;-39
2022/11/02 10:19:02;;;;;;;7.47;1.70;;;13.80;99.90;;;;;;5081091;28;20028;-39
2022/11/02 10:21:32;;;;;;;6.45;1.38;;;13.70;99.90;;;;;;5074471;28;20024;-39
2022/11/02 10:24:10;;;;;;;6.22;1.90;;;13.70;99.90;;;;;;5081218;28;20052;-40
2022/11/02 10:26:42;;;;;;;4.05;1.40;;;13.80;99.90;;;;;;5076696;28;20035;-41
2022/11/02 10:29:43;;;;;;;7.77;1.67;;;13.80;99.90;;;;;;5082200;28;20039;-41
2022/11/02 10:32:12;;;;;;;5.80;1.67;;;13.90;99.90;;;;;;5051972;28;20374;-39
2022/11/02 10:34:39;;;;;;;6.93;1.30;;;13.90;99.90;;;;;;5079496;28;20864;-36
2022/11/02 10:37:12;;;;;;;6.47;1.88;;;13.90;99.90;;;;;;5071350;28;20574;-39
2022/11/02 10:39:41;;;;;;;9.93;2.25;;;13.90;99.90;;;;;;5063184;28;20024;-40
2022/11/02 10:42:26;;;;;;;6.97;1.52;;;14.00;99.90;;;;;;5074781;28;20048;-40
2022/11/02 10:45:18;;;;;;;7.03;1.85;;;14.00;99.90;;;;;;5082513;28;20032;-40
2022/11/02 10:47:59;;;;;;;5.45;1.42;;;14.00;99.90;;;;;;5071918;28;20032;-37
2022/11/02 10:50:42;;;;;;;6.28;1.30;;;14.10;99.90;;;;;;5080586;28;20028;-40
2022/11/02 10:53:13;;;;;;;6.53;1.45;;;14.20;99.90;;;;;;5071465;28;20466;-42
2022/11/02 10:55:48;;;;;;;7.93;1.70;;;14.20;99.90;;;;;;5081190;28;20115;-40
2022/11/02 10:58:19;;;;;;;8.45;1.85;;;14.30;99.90;;;;;;5070576;28;20115;-35
2022/11/02 11:00:46;;;;;;;7.38;1.75;;;14.30;99.90;;;;;;5081500;28;20058;-39
2022/11/02 11:03:14;;;;;;;6.82;1.50;;;14.30;99.90;;;;;;5071149;28;20024;-40
2022/11/02 11:05:49;;;;;;;8.95;2.03;;;14.40;99.90;;;;;;5081607;28;20107;-39
2022/11/02 11:08:33;;;;;;;6.82;1.58;;;14.40;99.90;;;;;;5073874;28;20029;-36
2022/11/02 11:11:22;;;;;;;6.03;1.40;;;14.50;99.90;;;;;;5063512;28;20035;-40
2022/11/02 11:14:06;;;;;;;6.55;1.48;;;14.50;99.90;;;;;;5071923;28;20348;-39
2022/11/02 11:16:38;;;;;;;6.45;1.60;;;14.60;99.90;;;;;;5081291;28;20036;-40
2022/11/02 11:19:06;;;;;;;7.03;1.52;;;14.70;99.90;;;;;;5072571;28;20028;-41
2022/11/02 11:21:40;;;;;;;6.18;1.58;;;14.90;99.90;;;;;;5081684;28;20020;-39
2022/11/02 11:24:31;;;;;;;7.25;1.50;;;14.90;99.90;;;;;;5076774;28;20107;-38
2022/11/02 11:27:11;;;;;;;8.57;1.85;;;15.00;99.90;;;;;;5067424;28;20206;-38
2022/11/02 11:29:45;;;;;;;8.43;1.85;;;15.10;99.90;;;;;;5071278;28;20024;-39
2022/11/02 11:32:20;;;;;;;10.32;2.20;;;15.10;99.90;;;;;;5063240;28;20024;-40
2022/11/02 11:34:53;;;;;;;5.43;1.60;;;15.10;99.90;;;;;;5071489;28;20048;-42
2022/11/02 11:37:19;;;;;;;10.13;2.30;;;15.10;99.90;;;;;;5064110;28;20060;-37
2022/11/02 11:39:49;;;;;;;8.55;2.20;;;15.10;99.90;;;;;;5072452;28;20129;-41
2022/11/02 11:42:20;;;;;;;7.13;1.70;;;15.10;99.90;;;;;;5063345;28;20118;-38
2022/11/02 11:44:53;;;;;;;7.63;1.88;;;15.10;99.90;;;;;;5073126;28;20642;-40
2022/11/02 11:47:25;;;;;;;6.45;1.63;;;15.20;99.90;;;;;;5062102;28;20020;-40
2022/11/02 11:49:52;;;;;;;9.40;2.80;;;15.20;99.90;;;;;;5073270;28;20031;-41
2022/11/02 11:52:21;;;;;;;6.88;1.70;;;15.20;99.90;;;;;;5062799;28;20029;-37
2022/11/02 11:54:55;;;;;;;8.35;1.73;;;15.30;99.90;;;;;;5078811;28;20180;-37
2022/11/02 11:57:24;;;;;;;6.63;1.70;;;15.30;99.90;;;;;;5083701;28;20036;-40
2022/11/02 11:59:51;;;;;;;6.80;1.40;;;15.30;99.90;;;;;;5074102;28;20467;-40
2022/11/02 12:02:31;;;;;;;5.53;1.35;;;15.30;99.90;;;;;;5086595;28;20082;-40
2022/11/02 12:04:59;;;;;;;5.95;1.60;;;15.20;99.90;;;;;;5074429;28;20069;-40
2022/11/02 12:07:33;;;;;;;4.28;1.60;;;15.10;99.90;;;;;;5085141;28;20024;-40
2022/11/02 12:10:19;;;;;;;6.95;1.88;;;15.10;99.90;;;;;;5073534;28;20126;-40
2022/11/02 12:13:05;;;;;;;6.07;2.25;;;15.10;99.90;;;;;;5085315;28;20036;-40
2022/11/02 12:16:05;;;;;;;8.80;2.42;;;15.20;99.90;;;;;;5075607;28;20693;-38
2022/11/02 12:18:43;;;;;;;6.18;1.58;;;15.20;99.90;;;;;;5065828;28;20033;-40
2022/11/02 12:21:28;;;;;;;6.90;1.80;;;15.20;99.90;;;;;;5066112;28;20032;-40
2022/11/02 12:24:18;;;;;;;8.50;1.77;;;15.30;99.90;;;;;;5067681;28;20025;-39
2022/11/02 12:27:25;;;;;;;5.57;2.03;;;15.20;99.90;;;;;;5072098;28;20535;-37
2022/11/02 12:30:14;;;;;;;4.85;1.30;;;15.30;99.90;;;;;;5073372;28;20127;-39
2022/11/02 12:32:48;;;;;;;5.53;1.77;;;15.30;99.90;;;;;;5065166;28;20051;-39
2022/11/02 12:35:46;;;;;;;5.95;1.50;;;15.20;99.90;;;;;;5074761;28;20047;-37
2022/11/02 12:38:24;;;;;;;5.57;1.63;;;15.20;99.90;;;;;;5064153;28;20766;-39
2022/11/02 12:41:03;;;;;;;5.72;1.98;;;15.30;99.90;;;;;;5077615;28;20032;-41
2022/11/02 12:43:29;;;;;;;5.97;1.40;;;15.40;99.90;;;;;;5075973;28;20502;-40
2022/11/02 12:46:21;;;;;;;5.90;1.50;;;15.50;99.90;;;;;;5080729;28;20016;-40
2022/11/02 12:48:56;;;;;;;5.97;1.83;;;15.50;99.90;;;;;;5082780;28;20700;-39
2022/11/02 12:51:37;;;;;;;5.55;1.45;;;15.50;99.90;;;;;;5076224;28;20017;-39
2022/11/02 12:54:12;;;;;;;5.93;1.60;;;15.50;99.90;;;;;;5085414;28;20769;-40
2022/11/02 12:56:44;;;;;;;5.90;1.55;;;15.40;99.90;;;;;;5077619;28;20074;-39
2022/11/02 12:59:21;;;;;;;5.32;1.33;;;15.40;99.90;;;;;;5082096;28;20016;-39
2022/11/02 13:01:51;;;;;;;11.50;1.75;;;15.50;99.90;;;;;;5077737;28;20040;-41
2022/11/02 13:04:27;;;;;;;5.20;1.50;;;15.50;99.90;;;;;;5080310;28;20020;-40
2022/11/02 13:07:05;;;;;;;6.53;1.58;;;15.50;99.90;;;;;;5077825;28;20024;-40
2022/11/02 13:09:43;;;;;;;4.85;1.55;;;15.50;99.70;;;;;;5081391;28;20031;-40
2022/11/02 13:12:15;;;;;;;6.05;1.63;;;15.50;99.70;;;;;;5073704;28;20016;-39
2022/11/02 13:14:47;;;;;;;5.85;1.30;;;15.50;99.60;;;;;;5084290;28;20113;-40
2022/11/02 13:17:35;;;;;;;4.28;1.20;;;15.50;99.70;;;;;;5076980;28;20028;-40
2022/11/02 13:20:23;;;;;;;7.22;1.40;;;15.50;99.50;;;;;;5064534;28;20028;-38